sensor_id;sensor_type;location;lat;lon;timestamp;temperature;humidity
6556;DHT22;3311;48.32423000;14.29074500;2023-07-22T00:01:55;23.40;68.50
6556;DHT22;3311;48.32423000;14.29074500;2023-07-22T00:04:22;23.40;68.60
6556;DHT22;3311;48.32423000;14.29074500;2023-07-22T00:06:50;23.40;68.80
6556;DHT22;3311;48.32423000;14.29074500;2023-07-22T00:09:19;23.40;68.60
6556;DHT22;3311;48.32423000;14.29074500;2023-07-22T00:11:46;23.50;68.50
6556;DHT22;3311;48.32423000;14.29074500;2023-07-22T00:14:16;23.50;68.40
6556;DHT22;3311;48.32423000;14.29074500;2023-07-22T00:16:43;23.60;68.20
6556;DHT22;3311;48.32423000;14.29074500;2023-07-22T00:19:10;23.50;68.30
6556;DHT22;3311;48.32423000;14.29074500;2023-07-22T00:21:40;23.50;68.20
6556;DHT22;3311;48.32423000;14.29074500;2023-07-22T00:24:07;23.50;68.00
6556;DHT22;3311;48.32423000;14.29074500;2023-07-22T00:26:36;23.60;67.80
6556;DHT22;3311;48.32423000;14.29074500;2023-07-22T00:29:03;23.50;67.70
6556;DHT22;3311;48.32423000;14.29074500;2023-07-22T00:31:31;23.50;67.80
6556;DHT22;3311;48.32423000;14.29074500;2023-07-22T00:33:59;23.40;67.90
6556;DHT22;3311;48.32423000;14.29074500;2023-07-22T00:36:26;23.50;67.60
6556;DHT22;3311;48.32423000;14.29074500;2023-07-22T00:38:54;23.50;67.40
6556;DHT22;3311;48.32423000;14.29074500;2023-07-22T00:41:22;23.40;67.40
6556;DHT22;3311;48.32423000;14.29074500;2023-07-22T00:43:50;23.40;67.70
6556;DHT22;3311;48.32423000;14.29074500;2023-07-22T00:46:18;23.40;67.50
6556;DHT22;3311;48.32423000;14.29074500;2023-07-22T00:48:46;23.30;67.60
6556;DHT22;3311;48.32423000;14.29074500;2023-07-22T00:51:14;23.40;67.80
6556;DHT22;3311;48.32423000;14.29074500;2023-07-22T00:53:43;23.40;67.50
6556;DHT22;3311;48.32423000;14.29074500;2023-07-22T00:56:11;23.30;67.60
6556;DHT22;3311;48.32423000;14.29074500;2023-07-22T00:58:38;23.40;67.50
6556;DHT22;3311;48.32423000;14.29074500;2023-07-22T01:01:07;23.40;67.10
6556;DHT22;3311;48.32423000;14.29074500;2023-07-22T01:03:34;23.40;67.10
6556;DHT22;3311;48.32423000;14.29074500;2023-07-22T01:06:02;23.30;66.90
6556;DHT22;3311;48.32423000;14.29074500;2023-07-22T01:08:30;23.20;66.70
6556;DHT22;3311;48.32423000;14.29074500;2023-07-22T01:10:57;23.20;67.10
6556;DHT22;3311;48.32423000;14.29074500;2023-07-22T01:13:25;23.20;67.10
6556;DHT22;3311;48.32423000;14.29074500;2023-07-22T01:15:52;23.20;67.10
6556;DHT22;3311;48.32423000;14.29074500;2023-07-22T01:18:21;23.10;67.20
6556;DHT22;3311;48.32423000;14.29074500;2023-07-22T01:20:48;23.10;67.10
6556;DHT22;3311;48.32423000;14.29074500;2023-07-22T01:23:17;23.10;67.20
6556;DHT22;3311;48.32423000;14.29074500;2023-07-22T01:25:45;23.10;67.40
6556;DHT22;3311;48.32423000;14.29074500;2023-07-22T01:28:13;23.20;67.30
6556;DHT22;3311;48.32423000;14.29074500;2023-07-22T01:30:40;23.20;66.90
6556;DHT22;3311;48.32423000;14.29074500;2023-07-22T01:33:07;23.20;66.90
6556;DHT22;3311;48.32423000;14.29074500;2023-07-22T01:35:34;23.20;66.70
6556;DHT22;3311;48.32423000;14.29074500;2023-07-22T01:38:02;23.10;66.90
6556;DHT22;3311;48.32423000;14.29074500;2023-07-22T01:40:31;23.10;66.90
6556;DHT22;3311;48.32423000;14.29074500;2023-07-22T01:42:58;23.10;66.50
6556;DHT22;3311;48.32423000;14.29074500;2023-07-22T01:45:25;23.20;66.60
6556;DHT22;3311;48.32423000;14.29074500;2023-07-22T01:47:53;23.10;66.80
6556;DHT22;3311;48.32423000;14.29074500;2023-07-22T01:50:20;23.20;66.40
6556;DHT22;3311;48.32423000;14.29074500;2023-07-22T01:52:48;23.20;66.30
6556;DHT22;3311;48.32423000;14.29074500;2023-07-22T01:55:16;23.20;66.20
6556;DHT22;3311;48.32423000;14.29074500;2023-07-22T01:57:45;23.30;66.30
6556;DHT22;3311;48.32423000;14.29074500;2023-07-22T02:00:14;23.40;66.20
6556;DHT22;3311;48.32423000;14.29074500;2023-07-22T02:02:41;23.40;66.30
6556;DHT22;3311;48.32423000;14.29074500;2023-07-22T02:05:09;23.40;66.20
6556;DHT22;3311;48.32423000;14.29074500;2023-07-22T02:07:37;23.40;66.40
6556;DHT22;3311;48.32423000;14.29074500;2023-07-22T02:10:05;23.40;66.40
6556;DHT22;3311;48.32423000;14.29074500;2023-07-22T02:12:34;23.20;66.80
6556;DHT22;3311;48.32423000;14.29074500;2023-07-22T02:15:03;23.20;67.10
6556;DHT22;3311;48.32423000;14.29074500;2023-07-22T02:17:30;23.10;67.30
6556;DHT22;3311;48.32423000;14.29074500;2023-07-22T02:19:58;23.10;67.40
6556;DHT22;3311;48.32423000;14.29074500;2023-07-22T02:22:25;22.90;67.00
6556;DHT22;3311;48.32423000;14.29074500;2023-07-22T02:24:53;22.90;67.30
6556;DHT22;3311;48.32423000;14.29074500;2023-07-22T02:27:20;23.00;67.30
6556;DHT22;3311;48.32423000;14.29074500;2023-07-22T02:29:47;23.10;67.10
6556;DHT22;3311;48.32423000;14.29074500;2023-07-22T02:32:16;23.20;66.90
6556;DHT22;3311;48.32423000;14.29074500;2023-07-22T02:34:43;23.20;66.80
6556;DHT22;3311;48.32423000;14.29074500;2023-07-22T02:37:11;23.20;66.40
6556;DHT22;3311;48.32423000;14.29074500;2023-07-22T02:39:38;23.20;66.60
6556;DHT22;3311;48.32423000;14.29074500;2023-07-22T02:42:06;23.10;66.40
6556;DHT22;3311;48.32423000;14.29074500;2023-07-22T02:44:34;23.10;67.00
6556;DHT22;3311;48.32423000;14.29074500;2023-07-22T02:47:01;23.00;67.10
6556;DHT22;3311;48.32423000;14.29074500;2023-07-22T02:49:30;23.00;66.90
6556;DHT22;3311;48.32423000;14.29074500;2023-07-22T02:51:57;22.90;66.60
6556;DHT22;3311;48.32423000;14.29074500;2023-07-22T02:54:24;23.00;66.60
6556;DHT22;3311;48.32423000;14.29074500;2023-07-22T02:56:52;23.00;65.90
6556;DHT22;3311;48.32423000;14.29074500;2023-07-22T02:59:19;22.90;65.80
6556;DHT22;3311;48.32423000;14.29074500;2023-07-22T03:01:46;22.90;65.90
6556;DHT22;3311;48.32423000;14.29074500;2023-07-22T03:04:14;22.90;65.70
6556;DHT22;3311;48.32423000;14.29074500;2023-07-22T03:06:42;22.90;65.40
6556;DHT22;3311;48.32423000;14.29074500;2023-07-22T03:09:10;22.90;65.50
6556;DHT22;3311;48.32423000;14.29074500;2023-07-22T03:11:38;22.90;65.20
6556;DHT22;3311;48.32423000;14.29074500;2023-07-22T03:14:05;22.90;65.00
6556;DHT22;3311;48.32423000;14.29074500;2023-07-22T03:16:32;22.90;64.90
6556;DHT22;3311;48.32423000;14.29074500;2023-07-22T03:18:59;22.90;64.80
6556;DHT22;3311;48.32423000;14.29074500;2023-07-22T03:21:26;22.90;64.80
6556;DHT22;3311;48.32423000;14.29074500;2023-07-22T03:23:56;22.90;65.10
6556;DHT22;3311;48.32423000;14.29074500;2023-07-22T03:26:24;22.90;64.70
6556;DHT22;3311;48.32423000;14.29074500;2023-07-22T03:28:52;22.90;64.50
6556;DHT22;3311;48.32423000;14.29074500;2023-07-22T03:31:19;22.80;64.70
6556;DHT22;3311;48.32423000;14.29074500;2023-07-22T03:33:46;22.70;65.00
6556;DHT22;3311;48.32423000;14.29074500;2023-07-22T03:36:14;22.70;65.00
6556;DHT22;3311;48.32423000;14.29074500;2023-07-22T03:38:42;22.70;65.10
6556;DHT22;3311;48.32423000;14.29074500;2023-07-22T03:41:10;22.70;64.90
6556;DHT22;3311;48.32423000;14.29074500;2023-07-22T03:43:38;22.70;65.10
6556;DHT22;3311;48.32423000;14.29074500;2023-07-22T03:46:05;22.80;65.00
6556;DHT22;3311;48.32423000;14.29074500;2023-07-22T03:48:32;22.70;65.10
6556;DHT22;3311;48.32423000;14.29074500;2023-07-22T03:51:00;22.60;65.20
6556;DHT22;3311;48.32423000;14.29074500;2023-07-22T03:53:27;22.50;65.30
6556;DHT22;3311;48.32423000;14.29074500;2023-07-22T03:55:54;22.50;65.30
6556;DHT22;3311;48.32423000;14.29074500;2023-07-22T03:58:23;22.50;65.30
6556;DHT22;3311;48.32423000;14.29074500;2023-07-22T04:00:50;22.50;65.50
6556;DHT22;3311;48.32423000;14.29074500;2023-07-22T04:03:18;22.50;65.20
6556;DHT22;3311;48.32423000;14.29074500;2023-07-22T04:05:53;22.60;65.20
6556;DHT22;3311;48.32423000;14.29074500;2023-07-22T04:08:21;22.50;65.30
6556;DHT22;3311;48.32423000;14.29074500;2023-07-22T04:10:52;22.40;65.40
6556;DHT22;3311;48.32423000;14.29074500;2023-07-22T04:13:19;22.30;65.80
6556;DHT22;3311;48.32423000;14.29074500;2023-07-22T04:15:48;22.30;66.20
6556;DHT22;3311;48.32423000;14.29074500;2023-07-22T04:18:16;22.30;66.20
6556;DHT22;3311;48.32423000;14.29074500;2023-07-22T04:20:43;22.40;66.00
6556;DHT22;3311;48.32423000;14.29074500;2023-07-22T04:23:11;22.50;66.00
6556;DHT22;3311;48.32423000;14.29074500;2023-07-22T04:25:39;22.50;66.00
6556;DHT22;3311;48.32423000;14.29074500;2023-07-22T04:28:06;22.70;65.60
6556;DHT22;3311;48.32423000;14.29074500;2023-07-22T04:30:35;22.70;65.10
6556;DHT22;3311;48.32423000;14.29074500;2023-07-22T04:33:03;22.80;65.00
6556;DHT22;3311;48.32423000;14.29074500;2023-07-22T04:35:32;22.90;65.30
6556;DHT22;3311;48.32423000;14.29074500;2023-07-22T04:38:00;23.10;65.10
6556;DHT22;3311;48.32423000;14.29074500;2023-07-22T04:40:27;23.30;64.30
6556;DHT22;3311;48.32423000;14.29074500;2023-07-22T04:42:56;23.30;64.20
6556;DHT22;3311;48.32423000;14.29074500;2023-07-22T04:45:24;23.30;64.30
6556;DHT22;3311;48.32423000;14.29074500;2023-07-22T04:47:51;23.40;64.40
6556;DHT22;3311;48.32423000;14.29074500;2023-07-22T04:50:20;23.60;64.00
6556;DHT22;3311;48.32423000;14.29074500;2023-07-22T04:52:48;23.80;63.40
6556;DHT22;3311;48.32423000;14.29074500;2023-07-22T04:55:15;24.00;63.10
6556;DHT22;3311;48.32423000;14.29074500;2023-07-22T04:57:43;24.00;62.70
6556;DHT22;3311;48.32423000;14.29074500;2023-07-22T05:00:12;24.10;62.50
6556;DHT22;3311;48.32423000;14.29074500;2023-07-22T05:02:42;24.20;62.40
6556;DHT22;3311;48.32423000;14.29074500;2023-07-22T05:05:11;24.30;62.20
6556;DHT22;3311;48.32423000;14.29074500;2023-07-22T05:07:39;24.30;62.10
6556;DHT22;3311;48.32423000;14.29074500;2023-07-22T05:10:07;24.30;62.10
6556;DHT22;3311;48.32423000;14.29074500;2023-07-22T05:12:38;24.40;62.20
6556;DHT22;3311;48.32423000;14.29074500;2023-07-22T05:15:06;24.50;62.00
6556;DHT22;3311;48.32423000;14.29074500;2023-07-22T05:17:34;24.50;61.70
6556;DHT22;3311;48.32423000;14.29074500;2023-07-22T05:20:01;24.60;61.50
6556;DHT22;3311;48.32423000;14.29074500;2023-07-22T05:22:29;24.60;61.30
6556;DHT22;3311;48.32423000;14.29074500;2023-07-22T05:24:57;24.70;61.30
6556;DHT22;3311;48.32423000;14.29074500;2023-07-22T05:27:25;24.70;61.10
6556;DHT22;3311;48.32423000;14.29074500;2023-07-22T05:29:52;24.70;61.10
6556;DHT22;3311;48.32423000;14.29074500;2023-07-22T05:32:19;24.80;61.10
6556;DHT22;3311;48.32423000;14.29074500;2023-07-22T05:34:46;24.80;60.80
6556;DHT22;3311;48.32423000;14.29074500;2023-07-22T05:37:13;24.90;60.80
6556;DHT22;3311;48.32423000;14.29074500;2023-07-22T05:39:41;24.90;60.60
6556;DHT22;3311;48.32423000;14.29074500;2023-07-22T05:42:09;25.00;60.60
6556;DHT22;3311;48.32423000;14.29074500;2023-07-22T05:44:36;25.00;60.50
6556;DHT22;3311;48.32423000;14.29074500;2023-07-22T05:47:04;25.00;60.30
6556;DHT22;3311;48.32423000;14.29074500;2023-07-22T05:49:32;25.10;60.40
6556;DHT22;3311;48.32423000;14.29074500;2023-07-22T05:51:59;25.10;60.30
6556;DHT22;3311;48.32423000;14.29074500;2023-07-22T05:54:26;25.20;60.20
6556;DHT22;3311;48.32423000;14.29074500;2023-07-22T05:56:54;25.20;60.00
6556;DHT22;3311;48.32423000;14.29074500;2023-07-22T05:59:23;25.20;60.00
6556;DHT22;3311;48.32423000;14.29074500;2023-07-22T06:01:50;25.20;59.70
6556;DHT22;3311;48.32423000;14.29074500;2023-07-22T06:04:18;25.20;59.70
6556;DHT22;3311;48.32423000;14.29074500;2023-07-22T06:06:45;25.20;59.70
6556;DHT22;3311;48.32423000;14.29074500;2023-07-22T06:09:12;25.30;59.70
6556;DHT22;3311;48.32423000;14.29074500;2023-07-22T06:11:39;25.30;59.40
6556;DHT22;3311;48.32423000;14.29074500;2023-07-22T06:14:07;25.30;59.60
6556;DHT22;3311;48.32423000;14.29074500;2023-07-22T06:16:36;25.30;59.10
6556;DHT22;3311;48.32423000;14.29074500;2023-07-22T06:19:04;25.30;59.10
6556;DHT22;3311;48.32423000;14.29074500;2023-07-22T06:21:31;25.40;59.00
6556;DHT22;3311;48.32423000;14.29074500;2023-07-22T06:23:58;25.50;59.10
6556;DHT22;3311;48.32423000;14.29074500;2023-07-22T06:26:25;25.50;59.10
6556;DHT22;3311;48.32423000;14.29074500;2023-07-22T06:28:53;25.50;59.10
6556;DHT22;3311;48.32423000;14.29074500;2023-07-22T06:31:20;25.50;59.10
6556;DHT22;3311;48.32423000;14.29074500;2023-07-22T06:33:49;25.50;59.10
6556;DHT22;3311;48.32423000;14.29074500;2023-07-22T06:36:16;25.50;58.80
6556;DHT22;3311;48.32423000;14.29074500;2023-07-22T06:38:43;25.60;59.00
6556;DHT22;3311;48.32423000;14.29074500;2023-07-22T06:41:10;25.60;59.00
6556;DHT22;3311;48.32423000;14.29074500;2023-07-22T06:43:38;25.70;59.00
6556;DHT22;3311;48.32423000;14.29074500;2023-07-22T06:46:06;25.70;58.90
6556;DHT22;3311;48.32423000;14.29074500;2023-07-22T06:48:33;25.70;58.90
6556;DHT22;3311;48.32423000;14.29074500;2023-07-22T06:51:01;25.70;58.90
6556;DHT22;3311;48.32423000;14.29074500;2023-07-22T06:53:29;25.80;59.00
6556;DHT22;3311;48.32423000;14.29074500;2023-07-22T06:55:56;25.80;59.00
6556;DHT22;3311;48.32423000;14.29074500;2023-07-22T06:58:24;25.80;59.00
6556;DHT22;3311;48.32423000;14.29074500;2023-07-22T07:00:53;25.80;59.30
6556;DHT22;3311;48.32423000;14.29074500;2023-07-22T07:03:21;25.80;58.70
6556;DHT22;3311;48.32423000;14.29074500;2023-07-22T07:05:52;25.80;58.50
6556;DHT22;3311;48.32423000;14.29074500;2023-07-22T07:08:21;25.90;58.70
6556;DHT22;3311;48.32423000;14.29074500;2023-07-22T07:10:49;25.90;58.50
6556;DHT22;3311;48.32423000;14.29074500;2023-07-22T07:13:16;25.90;58.50
6556;DHT22;3311;48.32423000;14.29074500;2023-07-22T07:15:47;25.90;58.50
6556;DHT22;3311;48.32423000;14.29074500;2023-07-22T07:18:15;25.90;58.60
6556;DHT22;3311;48.32423000;14.29074500;2023-07-22T07:20:43;26.00;58.50
6556;DHT22;3311;48.32423000;14.29074500;2023-07-22T07:23:11;26.00;58.40
6556;DHT22;3311;48.32423000;14.29074500;2023-07-22T07:25:40;26.00;58.30
6556;DHT22;3311;48.32423000;14.29074500;2023-07-22T07:28:07;26.10;57.90
6556;DHT22;3311;48.32423000;14.29074500;2023-07-22T07:30:34;26.10;57.50
6556;DHT22;3311;48.32423000;14.29074500;2023-07-22T07:33:01;25.80;57.20
6556;DHT22;3311;48.32423000;14.29074500;2023-07-22T07:35:28;26.10;57.20
6556;DHT22;3311;48.32423000;14.29074500;2023-07-22T07:37:56;26.10;57.00
6556;DHT22;3311;48.32423000;14.29074500;2023-07-22T07:40:24;26.10;56.60
6556;DHT22;3311;48.32423000;14.29074500;2023-07-22T07:42:54;26.10;56.70
6556;DHT22;3311;48.32423000;14.29074500;2023-07-22T07:45:21;26.10;56.60
6556;DHT22;3311;48.32423000;14.29074500;2023-07-22T07:47:48;26.10;56.30
6556;DHT22;3311;48.32423000;14.29074500;2023-07-22T07:50:15;26.10;55.70
6556;DHT22;3311;48.32423000;14.29074500;2023-07-22T07:52:42;26.10;55.40
6556;DHT22;3311;48.32423000;14.29074500;2023-07-22T07:55:10;26.00;55.70
6556;DHT22;3311;48.32423000;14.29074500;2023-07-22T07:57:37;26.00;55.40
6556;DHT22;3311;48.32423000;14.29074500;2023-07-22T08:00:07;26.00;55.90
6556;DHT22;3311;48.32423000;14.29074500;2023-07-22T08:02:35;26.00;55.10
6556;DHT22;3311;48.32423000;14.29074500;2023-07-22T08:05:02;26.00;55.10
6556;DHT22;3311;48.32423000;14.29074500;2023-07-22T08:07:30;26.10;55.10
6556;DHT22;3311;48.32423000;14.29074500;2023-07-22T08:09:57;26.10;55.30
6556;DHT22;3311;48.32423000;14.29074500;2023-07-22T08:12:25;26.20;55.00
6556;DHT22;3311;48.32423000;14.29074500;2023-07-22T08:14:52;26.40;54.90
6556;DHT22;3311;48.32423000;14.29074500;2023-07-22T08:17:21;26.50;54.70
6556;DHT22;3311;48.32423000;14.29074500;2023-07-22T08:19:48;26.50;54.60
6556;DHT22;3311;48.32423000;14.29074500;2023-07-22T08:22:16;26.50;54.60
6556;DHT22;3311;48.32423000;14.29074500;2023-07-22T08:24:44;26.50;54.50
6556;DHT22;3311;48.32423000;14.29074500;2023-07-22T08:27:11;26.50;54.50
6556;DHT22;3311;48.32423000;14.29074500;2023-07-22T08:29:39;26.60;54.30
6556;DHT22;3311;48.32423000;14.29074500;2023-07-22T08:32:06;26.60;54.30
6556;DHT22;3311;48.32423000;14.29074500;2023-07-22T08:34:35;26.60;54.30
6556;DHT22;3311;48.32423000;14.29074500;2023-07-22T08:37:02;26.50;54.40
6556;DHT22;3311;48.32423000;14.29074500;2023-07-22T08:39:29;26.50;54.50
6556;DHT22;3311;48.32423000;14.29074500;2023-07-22T08:42:01;26.50;54.50
6556;DHT22;3311;48.32423000;14.29074500;2023-07-22T08:44:33;26.40;54.50
6556;DHT22;3311;48.32423000;14.29074500;2023-07-22T08:47:01;26.30;54.50
6556;DHT22;3311;48.32423000;14.29074500;2023-07-22T08:49:30;26.20;54.80
6556;DHT22;3311;48.32423000;14.29074500;2023-07-22T08:51:59;26.10;54.70
6556;DHT22;3311;48.32423000;14.29074500;2023-07-22T08:54:27;26.10;54.70
6556;DHT22;3311;48.32423000;14.29074500;2023-07-22T08:56:55;26.10;54.80
6556;DHT22;3311;48.32423000;14.29074500;2023-07-22T08:59:24;26.10;54.60
6556;DHT22;3311;48.32423000;14.29074500;2023-07-22T09:01:51;26.10;54.80
6556;DHT22;3311;48.32423000;14.29074500;2023-07-22T09:04:20;26.10;54.80
6556;DHT22;3311;48.32423000;14.29074500;2023-07-22T09:06:47;26.10;54.70
6556;DHT22;3311;48.32423000;14.29074500;2023-07-22T09:09:16;26.00;54.70
6556;DHT22;3311;48.32423000;14.29074500;2023-07-22T09:11:46;26.00;54.70
6556;DHT22;3311;48.32423000;14.29074500;2023-07-22T09:14:15;26.00;54.70
6556;DHT22;3311;48.32423000;14.29074500;2023-07-22T09:16:44;26.00;54.70
6556;DHT22;3311;48.32423000;14.29074500;2023-07-22T09:19:11;26.00;54.70
6556;DHT22;3311;48.32423000;14.29074500;2023-07-22T09:21:39;26.00;54.60
6556;DHT22;3311;48.32423000;14.29074500;2023-07-22T09:24:22;25.90;54.70
6556;DHT22;3311;48.32423000;14.29074500;2023-07-22T09:26:50;25.90;54.80
6556;DHT22;3311;48.32423000;14.29074500;2023-07-22T09:29:18;25.80;54.80
6556;DHT22;3311;48.32423000;14.29074500;2023-07-22T09:31:50;25.80;54.70
6556;DHT22;3311;48.32423000;14.29074500;2023-07-22T09:34:17;25.80;54.70
6556;DHT22;3311;48.32423000;14.29074500;2023-07-22T09:36:51;25.80;54.70
6556;DHT22;3311;48.32423000;14.29074500;2023-07-22T09:39:20;25.80;54.80
6556;DHT22;3311;48.32423000;14.29074500;2023-07-22T09:41:47;25.70;54.70
6556;DHT22;3311;48.32423000;14.29074500;2023-07-22T09:44:14;25.70;54.60
6556;DHT22;3311;48.32423000;14.29074500;2023-07-22T09:46:41;25.80;54.80
6556;DHT22;3311;48.32423000;14.29074500;2023-07-22T09:49:13;25.80;54.60
6556;DHT22;3311;48.32423000;14.29074500;2023-07-22T09:51:42;25.80;54.70
6556;DHT22;3311;48.32423000;14.29074500;2023-07-22T09:54:10;25.80;54.70
6556;DHT22;3311;48.32423000;14.29074500;2023-07-22T09:56:45;25.70;54.70
6556;DHT22;3311;48.32423000;14.29074500;2023-07-22T09:59:13;25.60;54.50
6556;DHT22;3311;48.32423000;14.29074500;2023-07-22T10:01:41;25.70;54.50
6556;DHT22;3311;48.32423000;14.29074500;2023-07-22T10:04:12;25.70;54.50
6556;DHT22;3311;48.32423000;14.29074500;2023-07-22T10:06:43;25.70;54.40
6556;DHT22;3311;48.32423000;14.29074500;2023-07-22T10:09:11;25.70;54.40
6556;DHT22;3311;48.32423000;14.29074500;2023-07-22T10:11:39;25.70;54.40
6556;DHT22;3311;48.32423000;14.29074500;2023-07-22T10:14:09;25.60;54.40
6556;DHT22;3311;48.32423000;14.29074500;2023-07-22T10:16:38;25.70;54.30
6556;DHT22;3311;48.32423000;14.29074500;2023-07-22T10:19:08;25.60;54.30
6556;DHT22;3311;48.32423000;14.29074500;2023-07-22T10:21:37;25.60;54.30
6556;DHT22;3311;48.32423000;14.29074500;2023-07-22T10:24:07;25.60;54.20
6556;DHT22;3311;48.32423000;14.29074500;2023-07-22T10:26:34;25.60;54.30
6556;DHT22;3311;48.32423000;14.29074500;2023-07-22T10:29:02;25.60;54.40
6556;DHT22;3311;48.32423000;14.29074500;2023-07-22T10:31:32;25.60;54.50
6556;DHT22;3311;48.32423000;14.29074500;2023-07-22T10:34:00;25.60;54.40
6556;DHT22;3311;48.32423000;14.29074500;2023-07-22T10:36:29;25.60;54.50
6556;DHT22;3311;48.32423000;14.29074500;2023-07-22T10:38:57;25.60;54.60
6556;DHT22;3311;48.32423000;14.29074500;2023-07-22T10:41:24;25.50;54.50
6556;DHT22;3311;48.32423000;14.29074500;2023-07-22T10:43:56;25.50;54.60
6556;DHT22;3311;48.32423000;14.29074500;2023-07-22T10:46:33;25.50;54.50
6556;DHT22;3311;48.32423000;14.29074500;2023-07-22T10:49:10;25.40;54.40
6556;DHT22;3311;48.32423000;14.29074500;2023-07-22T10:51:39;25.40;54.40
6556;DHT22;3311;48.32423000;14.29074500;2023-07-22T10:54:11;25.40;54.40
6556;DHT22;3311;48.32423000;14.29074500;2023-07-22T10:56:42;25.40;54.30
6556;DHT22;3311;48.32423000;14.29074500;2023-07-22T10:59:11;25.40;54.40
6556;DHT22;3311;48.32423000;14.29074500;2023-07-22T11:01:41;25.40;54.40
6556;DHT22;3311;48.32423000;14.29074500;2023-07-22T11:04:22;25.40;54.40
6556;DHT22;3311;48.32423000;14.29074500;2023-07-22T11:06:57;25.40;54.50
6556;DHT22;3311;48.32423000;14.29074500;2023-07-22T11:09:40;25.40;54.50
6556;DHT22;3311;48.32423000;14.29074500;2023-07-22T11:12:13;25.40;54.50
6556;DHT22;3311;48.32423000;14.29074500;2023-07-22T11:14:47;25.40;54.50
6556;DHT22;3311;48.32423000;14.29074500;2023-07-22T11:17:18;25.40;54.70
6556;DHT22;3311;48.32423000;14.29074500;2023-07-22T11:19:45;25.40;54.70
6556;DHT22;3311;48.32423000;14.29074500;2023-07-22T11:22:15;25.40;54.50
6556;DHT22;3311;48.32423000;14.29074500;2023-07-22T11:24:43;25.40;54.50
6556;DHT22;3311;48.32423000;14.29074500;2023-07-22T11:27:10;25.40;54.40
6556;DHT22;3311;48.32423000;14.29074500;2023-07-22T11:29:38;25.40;54.60
6556;DHT22;3311;48.32423000;14.29074500;2023-07-22T11:32:16;25.40;54.50
6556;DHT22;3311;48.32423000;14.29074500;2023-07-22T11:34:43;25.40;54.40
6556;DHT22;3311;48.32423000;14.29074500;2023-07-22T11:37:12;25.30;54.30
6556;DHT22;3311;48.32423000;14.29074500;2023-07-22T11:39:40;25.40;54.60
6556;DHT22;3311;48.32423000;14.29074500;2023-07-22T11:42:08;25.40;54.30
6556;DHT22;3311;48.32423000;14.29074500;2023-07-22T11:44:36;25.40;54.40
6556;DHT22;3311;48.32423000;14.29074500;2023-07-22T11:47:05;25.40;54.00
6556;DHT22;3311;48.32423000;14.29074500;2023-07-22T11:49:36;25.40;54.20
6556;DHT22;3311;48.32423000;14.29074500;2023-07-22T11:52:05;25.40;54.40
6556;DHT22;3311;48.32423000;14.29074500;2023-07-22T11:54:34;25.40;54.40
6556;DHT22;3311;48.32423000;14.29074500;2023-07-22T11:57:13;25.40;54.30
6556;DHT22;3311;48.32423000;14.29074500;2023-07-22T11:59:46;25.40;54.10
6556;DHT22;3311;48.32423000;14.29074500;2023-07-22T12:02:14;25.30;53.70
6556;DHT22;3311;48.32423000;14.29074500;2023-07-22T12:04:51;25.30;53.50
6556;DHT22;3311;48.32423000;14.29074500;2023-07-22T12:07:23;25.30;53.30
6556;DHT22;3311;48.32423000;14.29074500;2023-07-22T12:09:52;25.30;53.30
6556;DHT22;3311;48.32423000;14.29074500;2023-07-22T12:12:19;25.30;53.20
6556;DHT22;3311;48.32423000;14.29074500;2023-07-22T12:14:46;25.30;53.20
6556;DHT22;3311;48.32423000;14.29074500;2023-07-22T12:17:14;25.30;53.10
6556;DHT22;3311;48.32423000;14.29074500;2023-07-22T12:19:52;25.30;53.10
6556;DHT22;3311;48.32423000;14.29074500;2023-07-22T12:22:19;25.30;53.00
6556;DHT22;3311;48.32423000;14.29074500;2023-07-22T12:24:47;25.30;52.90
6556;DHT22;3311;48.32423000;14.29074500;2023-07-22T12:27:15;25.30;52.80
6556;DHT22;3311;48.32423000;14.29074500;2023-07-22T12:29:42;25.30;52.70
6556;DHT22;3311;48.32423000;14.29074500;2023-07-22T12:32:09;25.20;52.60
6556;DHT22;3311;48.32423000;14.29074500;2023-07-22T12:34:36;25.20;52.50
6556;DHT22;3311;48.32423000;14.29074500;2023-07-22T12:37:05;25.30;52.70
6556;DHT22;3311;48.32423000;14.29074500;2023-07-22T12:39:33;25.30;52.90
6556;DHT22;3311;48.32423000;14.29074500;2023-07-22T12:42:00;25.30;52.80
6556;DHT22;3311;48.32423000;14.29074500;2023-07-22T12:44:27;25.30;52.70
6556;DHT22;3311;48.32423000;14.29074500;2023-07-22T12:46:54;25.30;52.80
6556;DHT22;3311;48.32423000;14.29074500;2023-07-22T12:49:22;25.30;52.80
6556;DHT22;3311;48.32423000;14.29074500;2023-07-22T12:51:49;25.30;53.40
6556;DHT22;3311;48.32423000;14.29074500;2023-07-22T12:54:18;25.30;52.60
6556;DHT22;3311;48.32423000;14.29074500;2023-07-22T12:56:45;25.30;52.70
6556;DHT22;3311;48.32423000;14.29074500;2023-07-22T12:59:12;25.20;52.50
6556;DHT22;3311;48.32423000;14.29074500;2023-07-22T13:01:39;25.30;52.40
6556;DHT22;3311;48.32423000;14.29074500;2023-07-22T13:04:07;25.30;52.10
6556;DHT22;3311;48.32423000;14.29074500;2023-07-22T13:06:35;25.20;52.10
6556;DHT22;3311;48.32423000;14.29074500;2023-07-22T13:09:03;25.20;52.20
6556;DHT22;3311;48.32423000;14.29074500;2023-07-22T13:11:32;25.20;52.20
6556;DHT22;3311;48.32423000;14.29074500;2023-07-22T13:13:59;25.20;52.00
6556;DHT22;3311;48.32423000;14.29074500;2023-07-22T13:16:26;25.20;51.90
6556;DHT22;3311;48.32423000;14.29074500;2023-07-22T13:18:53;25.20;51.90
6556;DHT22;3311;48.32423000;14.29074500;2023-07-22T13:21:21;25.20;52.00
6556;DHT22;3311;48.32423000;14.29074500;2023-07-22T13:23:48;25.20;52.00
6556;DHT22;3311;48.32423000;14.29074500;2023-07-22T13:26:15;25.20;52.10
6556;DHT22;3311;48.32423000;14.29074500;2023-07-22T13:28:44;25.20;52.00
6556;DHT22;3311;48.32423000;14.29074500;2023-07-22T13:31:12;25.20;52.00
6556;DHT22;3311;48.32423000;14.29074500;2023-07-22T13:33:39;25.20;52.00
6556;DHT22;3311;48.32423000;14.29074500;2023-07-22T13:36:06;25.20;51.90
6556;DHT22;3311;48.32423000;14.29074500;2023-07-22T13:38:35;25.20;51.90
6556;DHT22;3311;48.32423000;14.29074500;2023-07-22T13:41:02;25.20;51.70